KGJT/GJT METAR and TAF weather

Enter ICAO airport designator
Station Type Date Time Source
KGJT METAR 2019/02/23 22:53 UTC NOAA

KGJT 232253Z 34005KT 10SM CLR 01/M08 A3016 RMK AO2 SLP240 T00061078


Station Type Date Time Source
KGJT Decoded METAR 2019/02/23 22:53 UTC NOAA

GRAND JUNCTION WALKER FIELD, CO, United States (KGJT) 39-08N 108-32W 1452M
Feb 23, 2019 - 05:53 PM EST / 2019.02.23 2253 UTC
Wind: from the NNW (340 degrees) at 6 MPH (5 KT):0
Visibility: 10 mile(s):0
Sky conditions: clear
Temperature: 33.1 F (0.6 C)
Windchill: 28 F (-2 C):1
Dew Point: 18.0 F (-7.8 C)
Relative Humidity: 53%
Pressure (altimeter): 30.16 in. Hg (1021 hPa)
ob: KGJT 232253Z 34005KT 10SM CLR 01/M08 A3016 RMK AO2 SLP240 T00061078
cycle: 23

Station Type Date Time Source
KGJT TAF 2019/02/23 18:39 UTC NOAA

TAF KGJT 231736Z 2318/2418 00000KT P6SM SKC
FM232100 31004KT P6SM FEW250
FM240600 09005KT P6SM BKN250


Example: see airport list